sensor_id;sensor_type;location;lat;lon;timestamp;pressure;altitude;pressure_sealevel;temperature;humidity
73692;BME280;61996;49.910;35.562;2023-02-13T00:02:28;100111.63;;;21.06;32.79
73692;BME280;61996;49.910;35.562;2023-02-13T00:05:31;100105.75;;;21.03;32.76
73692;BME280;61996;49.910;35.562;2023-02-13T00:08:35;100106.16;;;21.08;32.59
73692;BME280;61996;49.910;35.562;2023-02-13T00:11:38;100111.78;;;21.15;33.24
73692;BME280;61996;49.910;35.562;2023-02-13T00:14:41;100113.47;;;21.06;33.06
73692;BME280;61996;49.910;35.562;2023-02-13T00:17:44;100114.31;;;21.06;33.11
73692;BME280;61996;49.910;35.562;2023-02-13T00:20:55;100104.47;;;21.07;33.33
73692;BME280;61996;49.910;35.562;2023-02-13T00:24:00;100121.47;;;21.06;33.01
73692;BME280;61996;49.910;35.562;2023-02-13T00:27:02;100116.88;;;21.08;32.79
73692;BME280;61996;49.910;35.562;2023-02-13T00:30:06;100112.34;;;21.08;32.88
73692;BME280;61996;49.910;35.562;2023-02-13T00:33:09;100116.88;;;21.08;32.94
73692;BME280;61996;49.910;35.562;2023-02-13T00:36:12;100118.09;;;21.14;32.95
73692;BME280;61996;49.910;35.562;2023-02-13T00:39:16;100113.75;;;21.22;32.82
73692;BME280;61996;49.910;35.562;2023-02-13T00:42:19;100114.59;;;21.13;33.39
73692;BME280;61996;49.910;35.562;2023-02-13T00:45:24;100115.16;;;21.17;33.39
73692;BME280;61996;49.910;35.562;2023-02-13T00:48:27;100114.03;;;21.10;33.30
73692;BME280;61996;49.910;35.562;2023-02-13T00:51:31;100122.22;;;21.08;33.24
73692;BME280;61996;49.910;35.562;2023-02-13T00:54:35;100113.19;;;21.09;33.11
73692;BME280;61996;49.910;35.562;2023-02-13T00:57:38;100112.50;;;21.07;33.12
73692;BME280;61996;49.910;35.562;2023-02-13T01:00:41;100113.88;;;21.11;33.03
73692;BME280;61996;49.910;35.562;2023-02-13T01:03:44;100119.38;;;21.10;33.06
73692;BME280;61996;49.910;35.562;2023-02-13T01:06:47;100120.66;;;21.05;33.10
73692;BME280;61996;49.910;35.562;2023-02-13T01:09:51;100114.59;;;21.13;32.82
73692;BME280;61996;49.910;35.562;2023-02-13T01:12:54;100107.44;;;21.04;32.86
73692;BME280;61996;49.910;35.562;2023-02-13T01:15:57;100107.84;;;21.09;32.80
73692;BME280;61996;49.910;35.562;2023-02-13T01:19:00;100117.56;;;21.10;32.84
73692;BME280;61996;49.910;35.562;2023-02-13T01:22:02;100115.88;;;21.09;32.83
73692;BME280;61996;49.910;35.562;2023-02-13T01:25:07;100115.88;;;21.09;32.59
73692;BME280;61996;49.910;35.562;2023-02-13T01:28:09;100119.81;;;21.05;32.72
73692;BME280;61996;49.910;35.562;2023-02-13T01:31:12;100121.38;;;21.07;32.64
73692;BME280;61996;49.910;35.562;2023-02-13T01:34:15;100135.59;;;21.08;32.85
73692;BME280;61996;49.910;35.562;2023-02-13T01:37:18;100132.91;;;21.08;32.69
73692;BME280;61996;49.910;35.562;2023-02-13T01:40:22;100135.69;;;21.06;32.69
73692;BME280;61996;49.910;35.562;2023-02-13T01:43:40;100137.25;;;21.09;32.48
73692;BME280;61996;49.910;35.562;2023-02-13T01:46:44;100139.38;;;21.05;32.60
73692;BME280;61996;49.910;35.562;2023-02-13T01:49:46;100136.28;;;21.10;32.49
73692;BME280;61996;49.910;35.562;2023-02-13T01:52:51;100148.38;;;21.04;32.59
73692;BME280;61996;49.910;35.562;2023-02-13T01:55:57;100143.31;;;21.01;32.71
73692;BME280;61996;49.910;35.562;2023-02-13T01:59:03;100134.16;;;21.04;32.41
73692;BME280;61996;49.910;35.562;2023-02-13T02:02:07;100139.50;;;21.04;32.46
73692;BME280;61996;49.910;35.562;2023-02-13T02:05:10;100130.94;;;21.00;32.62
73692;BME280;61996;49.910;35.562;2023-02-13T02:08:13;100144.88;;;20.94;32.68
73692;BME280;61996;49.910;35.562;2023-02-13T02:11:33;100137.66;;;20.85;32.74
73692;BME280;61996;49.910;35.562;2023-02-13T02:14:38;100131.34;;;20.76;32.76
73692;BME280;61996;49.910;35.562;2023-02-13T02:17:41;100136.25;;;20.71;33.10
73692;BME280;61996;49.910;35.562;2023-02-13T02:21:01;100145.94;;;20.63;33.17
73692;BME280;61996;49.910;35.562;2023-02-13T02:24:14;100145.09;;;20.62;33.13
73692;BME280;61996;49.910;35.562;2023-02-13T02:30:56;100136.78;;;20.46;33.51
73692;BME280;61996;49.910;35.562;2023-02-13T02:34:08;100146.00;;;20.42;33.51
73692;BME280;61996;49.910;35.562;2023-02-13T02:37:20;100156.25;;;20.37;33.39
73692;BME280;61996;49.910;35.562;2023-02-13T02:40:28;100153.00;;;20.33;33.55
73692;BME280;61996;49.910;35.562;2023-02-13T02:43:52;100152.97;;;20.23;33.60
73692;BME280;61996;49.910;35.562;2023-02-13T02:46:59;100161.53;;;20.17;33.68
73692;BME280;61996;49.910;35.562;2023-02-13T02:50:28;100157.44;;;20.13;33.53
73692;BME280;61996;49.910;35.562;2023-02-13T02:53:36;100161.34;;;20.09;33.72
73692;BME280;61996;49.910;35.562;2023-02-13T02:56:40;100160.63;;;20.07;33.71
73692;BME280;61996;49.910;35.562;2023-02-13T02:59:44;100158.78;;;19.98;33.90
73692;BME280;61996;49.910;35.562;2023-02-13T03:03:07;100150.31;;;19.93;34.06
73692;BME280;61996;49.910;35.562;2023-02-13T03:06:32;100150.72;;;19.88;34.14
73692;BME280;61996;49.910;35.562;2023-02-13T03:09:38;100144.34;;;19.80;34.23
73692;BME280;61996;49.910;35.562;2023-02-13T03:13:00;100147.53;;;19.74;34.15
73692;BME280;61996;49.910;35.562;2023-02-13T03:16:22;100141.78;;;19.68;34.33
73692;BME280;61996;49.910;35.562;2023-02-13T03:23:25;100147.03;;;19.59;34.34
73692;BME280;61996;49.910;35.562;2023-02-13T03:26:35;100150.09;;;19.54;34.50
73692;BME280;61996;49.910;35.562;2023-02-13T03:29:52;100150.47;;;19.50;34.52
73692;BME280;61996;49.910;35.562;2023-02-13T03:33:30;100147.09;;;19.48;34.67
73692;BME280;61996;49.910;35.562;2023-02-13T03:36:40;100158.00;;;19.44;34.78
73692;BME280;61996;49.910;35.562;2023-02-13T03:40:06;100153.19;;;19.38;34.79
73692;BME280;61996;49.910;35.562;2023-02-13T03:43:12;100155.00;;;19.38;34.84
73692;BME280;61996;49.910;35.562;2023-02-13T03:46:16;100159.19;;;19.31;34.87
73692;BME280;61996;49.910;35.562;2023-02-13T03:49:21;100160.28;;;19.28;34.93
73692;BME280;61996;49.910;35.562;2023-02-13T03:52:44;100161.50;;;19.24;35.02
73692;BME280;61996;49.910;35.562;2023-02-13T03:55:50;100154.63;;;19.22;34.96
73692;BME280;61996;49.910;35.562;2023-02-13T03:59:12;100149.53;;;19.18;34.97
73692;BME280;61996;49.910;35.562;2023-02-13T04:02:20;100149.53;;;19.18;34.93
73692;BME280;61996;49.910;35.562;2023-02-13T04:05:24;100140.91;;;19.26;34.50
73692;BME280;61996;49.910;35.562;2023-02-13T04:08:29;100151.44;;;19.28;34.44
73692;BME280;61996;49.910;35.562;2023-02-13T04:11:34;100155.44;;;19.33;34.33
73692;BME280;61996;49.910;35.562;2023-02-13T04:14:39;100164.94;;;19.47;34.10
73692;BME280;61996;49.910;35.562;2023-02-13T04:17:45;100167.66;;;19.57;33.98
73692;BME280;61996;49.910;35.562;2023-02-13T04:20:49;100172.09;;;19.67;33.67
73692;BME280;61996;49.910;35.562;2023-02-13T04:23:52;100177.75;;;19.74;33.53
73692;BME280;61996;49.910;35.562;2023-02-13T04:26:56;100194.06;;;19.81;33.36
73692;BME280;61996;49.910;35.562;2023-02-13T04:29:59;100194.53;;;19.86;33.20
73692;BME280;61996;49.910;35.562;2023-02-13T04:33:02;100180.53;;;19.93;33.04
73692;BME280;61996;49.910;35.562;2023-02-13T04:36:05;100190.13;;;19.96;33.01
73692;BME280;61996;49.910;35.562;2023-02-13T04:39:08;100188.91;;;20.10;32.83
73692;BME280;61996;49.910;35.562;2023-02-13T04:42:13;100197.31;;;20.05;33.08
73692;BME280;61996;49.910;35.562;2023-02-13T04:45:16;100197.31;;;20.05;32.98
73692;BME280;61996;49.910;35.562;2023-02-13T04:48:19;100199.59;;;20.10;32.85
73692;BME280;61996;49.910;35.562;2023-02-13T04:51:21;100191.97;;;20.05;32.84
73692;BME280;61996;49.910;35.562;2023-02-13T04:54:24;100201.53;;;20.08;32.86
73692;BME280;61996;49.910;35.562;2023-02-13T04:57:28;100202.00;;;20.13;32.77
73692;BME280;61996;49.910;35.562;2023-02-13T05:00:31;100196.94;;;20.10;32.77
73692;BME280;61996;49.910;35.562;2023-02-13T05:03:34;100199.47;;;20.11;32.90
73692;BME280;61996;49.910;35.562;2023-02-13T05:06:36;100197.63;;;20.12;32.79
73692;BME280;61996;49.910;35.562;2023-02-13T05:09:39;100194.81;;;20.13;32.58
73692;BME280;61996;49.910;35.562;2023-02-13T05:12:43;100192.59;;;20.18;32.72
73692;BME280;61996;49.910;35.562;2023-02-13T05:15:46;100202.69;;;20.15;32.68
73692;BME280;61996;49.910;35.562;2023-02-13T05:18:49;100196.97;;;20.19;32.66
73692;BME280;61996;49.910;35.562;2023-02-13T05:21:55;100188.09;;;20.19;32.66
73692;BME280;61996;49.910;35.562;2023-02-13T05:25:15;100189.19;;;20.16;32.54
73692;BME280;61996;49.910;35.562;2023-02-13T05:28:19;100192.19;;;20.23;32.59
73692;BME280;61996;49.910;35.562;2023-02-13T05:31:40;100193.03;;;20.23;32.46
73692;BME280;61996;49.910;35.562;2023-02-13T05:34:43;100195.84;;;20.22;32.53
73692;BME280;61996;49.910;35.562;2023-02-13T05:37:46;100192.06;;;20.24;32.64
73692;BME280;61996;49.910;35.562;2023-02-13T05:40:49;100191.22;;;20.24;32.39
73692;BME280;61996;49.910;35.562;2023-02-13T05:43:53;100186.72;;;20.24;32.53
73692;BME280;61996;49.910;35.562;2023-02-13T05:46:56;100186.44;;;20.27;32.41
73692;BME280;61996;49.910;35.562;2023-02-13T05:49:59;100184.47;;;20.30;32.50
73692;BME280;61996;49.910;35.562;2023-02-13T05:53:01;100174.78;;;20.29;32.37
73692;BME280;61996;49.910;35.562;2023-02-13T05:56:05;100186.91;;;20.33;32.37
73692;BME280;61996;49.910;35.562;2023-02-13T05:59:09;100176.59;;;20.28;32.49
73692;BME280;61996;49.910;35.562;2023-02-13T06:02:12;100171.31;;;20.38;32.25
73692;BME280;61996;49.910;35.562;2023-02-13T06:05:15;100175.94;;;20.36;32.27
73692;BME280;61996;49.910;35.562;2023-02-13T06:08:18;100184.75;;;20.26;32.38
73692;BME280;61996;49.910;35.562;2023-02-13T06:11:20;100180.66;;;20.22;32.54
73692;BME280;61996;49.910;35.562;2023-02-13T06:14:25;100192.00;;;20.15;32.79
73692;BME280;61996;49.910;35.562;2023-02-13T06:17:27;100190.84;;;20.08;32.81
73692;BME280;61996;49.910;35.562;2023-02-13T06:20:30;100183.25;;;20.03;32.75
73692;BME280;61996;49.910;35.562;2023-02-13T06:23:33;100173.38;;;19.94;32.97
73692;BME280;61996;49.910;35.562;2023-02-13T06:26:36;100187.13;;;19.89;33.07
73692;BME280;61996;49.910;35.562;2023-02-13T06:29:40;100180.03;;;19.79;33.08
73692;BME280;61996;49.910;35.562;2023-02-13T06:32:45;100190.97;;;19.76;33.13
73692;BME280;61996;49.910;35.562;2023-02-13T06:35:48;100188.00;;;19.69;33.42
73692;BME280;61996;49.910;35.562;2023-02-13T06:38:50;100177.97;;;19.61;33.27
73692;BME280;61996;49.910;35.562;2023-02-13T06:41:53;100189.59;;;19.60;33.49
73692;BME280;61996;49.910;35.562;2023-02-13T06:44:57;100176.78;;;19.54;33.49
73692;BME280;61996;49.910;35.562;2023-02-13T06:48:00;100172.38;;;19.53;33.39
73692;BME280;61996;49.910;35.562;2023-02-13T06:51:03;100156.19;;;19.45;33.51
73692;BME280;61996;49.910;35.562;2023-02-13T06:54:06;100156.59;;;19.40;33.56
73692;BME280;61996;49.910;35.562;2023-02-13T06:57:09;100146.63;;;19.42;33.57
73692;BME280;61996;49.910;35.562;2023-02-13T07:00:13;100150.66;;;19.37;33.46
73692;BME280;61996;49.910;35.562;2023-02-13T07:03:17;100151.50;;;19.37;33.56
73692;BME280;61996;49.910;35.562;2023-02-13T07:06:20;100154.31;;;19.36;33.69
73692;BME280;61996;49.910;35.562;2023-02-13T07:09:23;100145.84;;;19.31;33.92
73692;BME280;61996;49.910;35.562;2023-02-13T07:12:26;100141.75;;;19.27;33.75
73692;BME280;61996;49.910;35.562;2023-02-13T07:15:30;100142.97;;;19.23;33.82
73692;BME280;61996;49.910;35.562;2023-02-13T07:18:33;100140.31;;;19.23;33.93
73692;BME280;61996;49.910;35.562;2023-02-13T07:21:38;100142.97;;;19.23;33.82
73692;BME280;61996;49.910;35.562;2023-02-13T07:24:41;100145.19;;;19.17;33.79
73692;BME280;61996;49.910;35.562;2023-02-13T07:27:44;100157.47;;;19.09;33.93
73692;BME280;61996;49.910;35.562;2023-02-13T07:30:48;100152.75;;;19.12;34.03
73692;BME280;61996;49.910;35.562;2023-02-13T07:33:51;100166.13;;;19.22;33.70
73692;BME280;61996;49.910;35.562;2023-02-13T07:36:53;100158.97;;;19.23;33.55
73692;BME280;61996;49.910;35.562;2023-02-13T07:39:56;100171.09;;;19.27;33.53
73692;BME280;61996;49.910;35.562;2023-02-13T07:42:59;100170.03;;;19.39;33.48
73692;BME280;61996;49.910;35.562;2023-02-13T07:46:04;100172.94;;;19.47;33.32
73692;BME280;61996;49.910;35.562;2023-02-13T07:49:07;100162.31;;;19.57;33.06
73692;BME280;61996;49.910;35.562;2023-02-13T07:52:09;100151.34;;;19.71;32.81
73692;BME280;61996;49.910;35.562;2023-02-13T07:55:12;100157.66;;;19.70;32.80
73692;BME280;61996;49.910;35.562;2023-02-13T07:58:15;100159.13;;;19.84;32.57
73692;BME280;61996;49.910;35.562;2023-02-13T08:01:19;100149.75;;;19.89;32.38
73692;BME280;61996;49.910;35.562;2023-02-13T08:04:22;100155.94;;;19.90;32.38
73692;BME280;61996;49.910;35.562;2023-02-13T08:07:26;100155.41;;;19.96;32.30
73692;BME280;61996;49.910;35.562;2023-02-13T08:10:29;100154.16;;;20.00;32.29
73692;BME280;61996;49.910;35.562;2023-02-13T08:13:49;100149.78;;;19.99;32.27
73692;BME280;61996;49.910;35.562;2023-02-13T08:16:53;100140.41;;;20.05;32.17
73692;BME280;61996;49.910;35.562;2023-02-13T08:19:56;100140.97;;;20.08;32.10
73692;BME280;61996;49.910;35.562;2023-02-13T08:23:03;100144.75;;;20.06;32.20
73692;BME280;61996;49.910;35.562;2023-02-13T08:26:06;100132.84;;;20.10;32.06
73692;BME280;61996;49.910;35.562;2023-02-13T08:29:09;100124.94;;;20.08;31.94
73692;BME280;61996;49.910;35.562;2023-02-13T08:32:13;100108.38;;;20.14;31.95
73692;BME280;61996;49.910;35.562;2023-02-13T08:35:16;100101.94;;;20.17;31.92
73692;BME280;61996;49.910;35.562;2023-02-13T08:38:18;100099.28;;;20.17;31.88
73692;BME280;61996;49.910;35.562;2023-02-13T08:41:21;100085.50;;;20.21;31.88
73692;BME280;61996;49.910;35.562;2023-02-13T08:44:24;100086.63;;;20.19;31.86
73692;BME280;61996;49.910;35.562;2023-02-13T08:47:29;100096.47;;;20.18;31.88
73692;BME280;61996;49.910;35.562;2023-02-13T08:50:31;100076.38;;;20.24;31.77
73692;BME280;61996;49.910;35.562;2023-02-13T08:53:37;100077.94;;;20.26;31.75
73692;BME280;61996;49.910;35.562;2023-02-13T08:56:41;100080.84;;;20.23;31.75
73692;BME280;61996;49.910;35.562;2023-02-13T08:59:44;100079.75;;;20.26;31.69
73692;BME280;61996;49.910;35.562;2023-02-13T09:02:48;100082.44;;;20.26;31.72
73692;BME280;61996;49.910;35.562;2023-02-13T09:05:50;100075.97;;;20.29;31.61
73692;BME280;61996;49.910;35.562;2023-02-13T09:08:53;100067.25;;;20.26;31.79
73692;BME280;61996;49.910;35.562;2023-02-13T09:11:56;100073.72;;;20.34;31.75
73692;BME280;61996;49.910;35.562;2023-02-13T09:14:59;100060.22;;;20.35;31.76
73692;BME280;61996;49.910;35.562;2023-02-13T09:18:03;100072.03;;;20.33;31.70
73692;BME280;61996;49.910;35.562;2023-02-13T09:21:06;100061.22;;;20.34;31.76
73692;BME280;61996;49.910;35.562;2023-02-13T09:24:10;100052.50;;;20.42;31.64
73692;BME280;61996;49.910;35.562;2023-02-13T09:27:13;100049.13;;;20.40;31.59
73692;BME280;61996;49.910;35.562;2023-02-13T09:30:16;100039.44;;;20.39;31.77
73692;BME280;61996;49.910;35.562;2023-02-13T09:33:25;100035.78;;;20.40;31.65
73692;BME280;61996;49.910;35.562;2023-02-13T09:36:28;100038.78;;;20.46;31.59
73692;BME280;61996;49.910;35.562;2023-02-13T09:39:30;100038.03;;;20.44;31.70
73692;BME280;61996;49.910;35.562;2023-02-13T09:42:33;100034.50;;;20.44;31.69
73692;BME280;61996;49.910;35.562;2023-02-13T09:45:38;100030.97;;;20.43;31.70
73692;BME280;61996;49.910;35.562;2023-02-13T09:48:43;100017.25;;;20.48;31.54
73692;BME280;61996;49.910;35.562;2023-02-13T09:51:50;100019.63;;;20.51;31.56
73692;BME280;61996;49.910;35.562;2023-02-13T09:54:57;100007.41;;;20.48;31.47
73692;BME280;61996;49.910;35.562;2023-02-13T09:58:02;100004.03;;;20.46;31.72
73692;BME280;61996;49.910;35.562;2023-02-13T10:01:19;99996.72;;;20.48;31.61
73692;BME280;61996;49.910;35.562;2023-02-13T10:04:28;99988.84;;;20.47;31.64
73692;BME280;61996;49.910;35.562;2023-02-13T10:07:35;99970.84;;;20.49;31.68
73692;BME280;61996;49.910;35.562;2023-02-13T10:10:43;99967.19;;;20.50;31.51
73692;BME280;61996;49.910;35.562;2023-02-13T10:14:01;99968.31;;;20.47;31.63
73692;BME280;61996;49.910;35.562;2023-02-13T10:17:06;99969.00;;;20.49;31.63
73692;BME280;61996;49.910;35.562;2023-02-13T10:20:18;99968.19;;;20.59;31.51
73692;BME280;61996;49.910;35.562;2023-02-13T10:23:24;99959.06;;;20.51;31.55
73692;BME280;61996;49.910;35.562;2023-02-13T10:26:30;99955.38;;;20.62;31.33
73692;BME280;61996;49.910;35.562;2023-02-13T10:29:44;99944.56;;;20.54;31.53
73692;BME280;61996;49.910;35.562;2023-02-13T10:33:10;99935.56;;;20.55;31.40
73692;BME280;61996;49.910;35.562;2023-02-13T10:36:24;99935.25;;;20.68;31.21
73692;BME280;61996;49.910;35.562;2023-02-13T10:39:29;99930.06;;;20.66;31.41
73692;BME280;61996;49.910;35.562;2023-02-13T10:42:34;99925.25;;;20.70;31.39
73692;BME280;61996;49.910;35.562;2023-02-13T10:45:47;99913.31;;;20.64;31.55
73692;BME280;61996;49.910;35.562;2023-02-13T10:49:04;99918.38;;;20.67;31.81
73692;BME280;61996;49.910;35.562;2023-02-13T10:52:14;99915.06;;;20.93;32.19
73692;BME280;61996;49.910;35.562;2023-02-13T10:58:41;99908.94;;;20.44;32.30
73692;BME280;61996;49.910;35.562;2023-02-13T11:01:48;99899.94;;;20.64;32.49
73692;BME280;61996;49.910;35.562;2023-02-13T11:04:57;99887.56;;;20.73;33.11
73692;BME280;61996;49.910;35.562;2023-02-13T11:08:02;99895.44;;;20.65;33.01
73692;BME280;61996;49.910;35.562;2023-02-13T11:11:19;99890.38;;;20.71;32.87
73692;BME280;61996;49.910;35.562;2023-02-13T11:14:29;99878.00;;;20.70;32.90
73692;BME280;61996;49.910;35.562;2023-02-13T11:17:33;99883.78;;;20.66;32.86
73692;BME280;61996;49.910;35.562;2023-02-13T11:20:38;99870.75;;;20.53;33.01
73692;BME280;61996;49.910;35.562;2023-02-13T11:23:43;99876.34;;;20.50;32.95
73692;BME280;61996;49.910;35.562;2023-02-13T11:26:49;99878.03;;;20.41;32.95
73692;BME280;61996;49.910;35.562;2023-02-13T11:29:54;99861.56;;;20.36;32.86
73692;BME280;61996;49.910;35.562;2023-02-13T11:32:57;99850.78;;;20.28;32.83
73692;BME280;61996;49.910;35.562;2023-02-13T11:36:05;99847.69;;;20.23;32.87
73692;BME280;61996;49.910;35.562;2023-02-13T11:39:16;99839.41;;;20.16;32.87
73692;BME280;61996;49.910;35.562;2023-02-13T11:42:20;99836.03;;;20.14;32.90
73692;BME280;61996;49.910;35.562;2023-02-13T11:45:26;99834.22;;;20.05;32.87
73692;BME280;61996;49.910;35.562;2023-02-13T11:48:29;99824.53;;;20.04;32.80
73692;BME280;61996;49.910;35.562;2023-02-13T11:51:35;99819.91;;;19.96;32.96
73692;BME280;61996;49.910;35.562;2023-02-13T11:54:40;99804.31;;;19.92;32.89
73692;BME280;61996;49.910;35.562;2023-02-13T11:57:45;99797.69;;;19.86;32.92
73692;BME280;61996;49.910;35.562;2023-02-13T12:01:07;99793.75;;;19.81;33.04
73692;BME280;61996;49.910;35.562;2023-02-13T12:04:13;99793.91;;;19.79;33.11
73692;BME280;61996;49.910;35.562;2023-02-13T12:07:18;99790.41;;;19.79;33.03
73692;BME280;61996;49.910;35.562;2023-02-13T12:10:24;99788.97;;;19.75;32.98
73692;BME280;61996;49.910;35.562;2023-02-13T12:13:28;99785.06;;;19.69;32.93
73692;BME280;61996;49.910;35.562;2023-02-13T12:16:34;99781.69;;;19.67;33.01
73692;BME280;61996;49.910;35.562;2023-02-13T12:19:40;99772.16;;;19.64;33.05
73692;BME280;61996;49.910;35.562;2023-02-13T12:22:46;99778.63;;;19.62;32.97
73692;BME280;61996;49.910;35.562;2023-02-13T12:26:02;99770.03;;;19.58;33.03
73692;BME280;61996;49.910;35.562;2023-02-13T12:29:19;99758.50;;;19.48;33.05
73692;BME280;61996;49.910;35.562;2023-02-13T12:32:27;99745.16;;;19.48;33.25
73692;BME280;61996;49.910;35.562;2023-02-13T12:35:37;99747.41;;;19.43;33.21
73692;BME280;61996;49.910;35.562;2023-02-13T12:38:48;99744.59;;;19.35;33.22
73692;BME280;61996;49.910;35.562;2023-02-13T12:45:22;99754.69;;;19.31;33.23
73692;BME280;61996;49.910;35.562;2023-02-13T12:48:33;99756.94;;;19.26;33.35
73692;BME280;61996;49.910;35.562;2023-02-13T12:51:40;99759.72;;;19.25;33.32
73692;BME280;61996;49.910;35.562;2023-02-13T12:54:47;99754.69;;;19.22;33.23
73692;BME280;61996;49.910;35.562;2023-02-13T12:57:59;99739.38;;;19.14;33.40
73692;BME280;61996;49.910;35.562;2023-02-13T13:01:12;99744.84;;;19.12;33.71
73692;BME280;61996;49.910;35.562;2023-02-13T13:04:22;99744.28;;;19.09;33.95
73692;BME280;61996;49.910;35.562;2023-02-13T13:07:32;99733.47;;;19.10;33.93
73692;BME280;61996;49.910;35.562;2023-02-13T13:10:46;99736.44;;;19.07;33.96
73692;BME280;61996;49.910;35.562;2023-02-13T13:13:57;99727.59;;;19.07;33.99
73692;BME280;61996;49.910;35.562;2023-02-13T13:17:06;99731.34;;;19.04;34.04
73692;BME280;61996;49.910;35.562;2023-02-13T13:23:42;99713.69;;;18.94;34.22
73692;BME280;61996;49.910;35.562;2023-02-13T13:26:46;99711.44;;;19.08;34.04
73692;BME280;61996;49.910;35.562;2023-02-13T13:29:53;99720.56;;;19.15;33.83
73692;BME280;61996;49.910;35.562;2023-02-13T13:33:01;99717.06;;;19.25;33.68
73692;BME280;61996;49.910;35.562;2023-02-13T13:36:06;99718.22;;;19.41;33.42
73692;BME280;61996;49.910;35.562;2023-02-13T13:39:23;99719.06;;;19.42;33.57
73692;BME280;61996;49.910;35.562;2023-02-13T13:42:34;99718.19;;;19.51;33.17
73692;BME280;61996;49.910;35.562;2023-02-13T13:45:42;99722.59;;;19.62;33.05
73692;BME280;61996;49.910;35.562;2023-02-13T13:48:57;99706.88;;;19.68;32.82
73692;BME280;61996;49.910;35.562;2023-02-13T13:52:09;99705.28;;;19.85;32.73
73692;BME280;61996;49.910;35.562;2023-02-13T13:55:57;99698.53;;;19.81;33.00
73692;BME280;61996;49.910;35.562;2023-02-13T13:58:45;99689.25;;;19.85;33.06
73692;BME280;61996;49.910;35.562;2023-02-13T14:01:56;99691.63;;;19.88;32.86
73692;BME280;61996;49.910;35.562;2023-02-13T14:05:22;99693.03;;;19.92;32.82
73692;BME280;61996;49.910;35.562;2023-02-13T14:11:54;99697.81;;;19.98;32.61
73692;BME280;61996;49.910;35.562;2023-02-13T14:14:59;99688.66;;;20.01;32.66
73692;BME280;61996;49.910;35.562;2023-02-13T14:18:02;99682.19;;;20.04;32.60
73692;BME280;61996;49.910;35.562;2023-02-13T14:21:09;99673.63;;;20.10;32.34
73692;BME280;61996;49.910;35.562;2023-02-13T14:24:15;99670.38;;;20.06;32.46
73692;BME280;61996;49.910;35.562;2023-02-13T14:27:20;99662.94;;;20.10;32.49
73692;BME280;61996;49.910;35.562;2023-02-13T14:30:27;99661.38;;;20.07;32.50
73692;BME280;61996;49.910;35.562;2023-02-13T14:33:31;99660.81;;;20.13;32.50
73692;BME280;61996;49.910;35.562;2023-02-13T14:36:36;99658.53;;;20.18;32.34
73692;BME280;61996;49.910;35.562;2023-02-13T14:39:40;99652.63;;;20.15;32.49
73692;BME280;61996;49.910;35.562;2023-02-13T14:42:43;99654.03;;;20.19;32.54
73692;BME280;61996;49.910;35.562;2023-02-13T14:45:48;99643.63;;;20.16;32.44
73692;BME280;61996;49.910;35.562;2023-02-13T14:48:54;99635.03;;;20.22;32.25
73692;BME280;61996;49.910;35.562;2023-02-13T14:52:00;99631.84;;;20.18;32.33
73692;BME280;61996;49.910;35.562;2023-02-13T14:55:05;99641.78;;;20.26;32.19
73692;BME280;61996;49.910;35.562;2023-02-13T14:58:11;99630.69;;;20.21;32.27
73692;BME280;61996;49.910;35.562;2023-02-13T15:01:17;99634.44;;;20.38;32.26
73692;BME280;61996;49.910;35.562;2023-02-13T15:04:50;99629.13;;;20.28;32.69
73692;BME280;61996;49.910;35.562;2023-02-13T15:07:58;99617.75;;;20.26;32.78
73692;BME280;61996;49.910;35.562;2023-02-13T15:11:04;99623.88;;;20.36;32.64
73692;BME280;61996;49.910;35.562;2023-02-13T15:14:31;99625.44;;;20.29;32.70
73692;BME280;61996;49.910;35.562;2023-02-13T15:17:34;99622.50;;;20.32;32.66
73692;BME280;61996;49.910;35.562;2023-02-13T15:20:41;99643.03;;;20.32;32.69
73692;BME280;61996;49.910;35.562;2023-02-13T15:23:45;99635.00;;;20.32;32.48
73692;BME280;61996;49.910;35.562;2023-02-13T15:27:01;99621.78;;;20.30;32.54
73692;BME280;61996;49.910;35.562;2023-02-13T15:30:15;99640.19;;;20.33;32.36
73692;BME280;61996;49.910;35.562;2023-02-13T15:33:22;99626.69;;;20.35;32.28
73692;BME280;61996;49.910;35.562;2023-02-13T15:36:32;99626.69;;;20.35;32.34
73692;BME280;61996;49.910;35.562;2023-02-13T15:39:36;99620.50;;;20.34;32.29
73692;BME280;61996;49.910;35.562;2023-02-13T15:42:38;99627.69;;;20.34;32.20
73692;BME280;61996;49.910;35.562;2023-02-13T15:45:41;99606.16;;;20.35;32.16
73692;BME280;61996;49.910;35.562;2023-02-13T15:48:45;99624.09;;;20.43;32.25
73692;BME280;61996;49.910;35.562;2023-02-13T15:51:49;99635.09;;;20.40;32.12
73692;BME280;61996;49.910;35.562;2023-02-13T15:54:53;99622.44;;;20.42;32.20
73692;BME280;61996;49.910;35.562;2023-02-13T15:57:57;99633.97;;;20.42;32.23
73692;BME280;61996;49.910;35.562;2023-02-13T16:01:01;99626.78;;;20.43;32.13
73692;BME280;61996;49.910;35.562;2023-02-13T16:04:05;99622.03;;;20.46;32.25
73692;BME280;61996;49.910;35.562;2023-02-13T16:07:10;99621.44;;;20.43;32.18
73692;BME280;61996;49.910;35.562;2023-02-13T16:10:13;99618.94;;;20.41;32.21
73692;BME280;61996;49.910;35.562;2023-02-13T16:13:22;99627.91;;;20.50;32.20
73692;BME280;61996;49.910;35.562;2023-02-13T16:16:25;99629.19;;;20.46;32.21
73692;BME280;61996;49.910;35.562;2023-02-13T16:19:32;99619.19;;;20.48;32.15
73692;BME280;61996;49.910;35.562;2023-02-13T16:22:38;99619.59;;;20.43;32.26
73692;BME280;61996;49.910;35.562;2023-02-13T16:25:42;99618.38;;;20.47;32.13
73692;BME280;61996;49.910;35.562;2023-02-13T16:28:45;99616.22;;;20.51;32.07